sensor_id;sensor_type;location;lat;lon;timestamp;temperature;humidity
11855;DHT22;5987;53.140;8.904;2023-12-14T00:02:40;5.30;99.90
11855;DHT22;5987;53.140;8.904;2023-12-14T00:05:43;5.30;99.90
11855;DHT22;5987;53.140;8.904;2023-12-14T00:08:47;5.30;99.90
11855;DHT22;5987;53.140;8.904;2023-12-14T00:11:52;5.20;99.90
11855;DHT22;5987;53.140;8.904;2023-12-14T00:14:57;5.20;99.90
11855;DHT22;5987;53.140;8.904;2023-12-14T00:18:01;5.20;99.90
11855;DHT22;5987;53.140;8.904;2023-12-14T00:21:05;5.20;99.90
11855;DHT22;5987;53.140;8.904;2023-12-14T00:24:10;5.20;99.90
11855;DHT22;5987;53.140;8.904;2023-12-14T00:27:15;5.20;99.90
11855;DHT22;5987;53.140;8.904;2023-12-14T00:30:19;5.20;99.90
11855;DHT22;5987;53.140;8.904;2023-12-14T00:33:23;5.20;99.90
11855;DHT22;5987;53.140;8.904;2023-12-14T00:36:27;5.20;99.90
11855;DHT22;5987;53.140;8.904;2023-12-14T00:39:32;5.20;99.90
11855;DHT22;5987;53.140;8.904;2023-12-14T00:42:37;5.10;99.90
11855;DHT22;5987;53.140;8.904;2023-12-14T00:45:41;5.20;99.90
11855;DHT22;5987;53.140;8.904;2023-12-14T00:48:45;5.20;99.90
11855;DHT22;5987;53.140;8.904;2023-12-14T00:51:49;5.20;99.90
11855;DHT22;5987;53.140;8.904;2023-12-14T00:54:53;5.30;99.90
11855;DHT22;5987;53.140;8.904;2023-12-14T00:57:58;5.20;99.90
11855;DHT22;5987;53.140;8.904;2023-12-14T01:01:02;5.20;99.90
11855;DHT22;5987;53.140;8.904;2023-12-14T01:04:07;5.10;99.90
11855;DHT22;5987;53.140;8.904;2023-12-14T01:07:10;5.20;99.90
11855;DHT22;5987;53.140;8.904;2023-12-14T01:10:14;5.20;99.90
11855;DHT22;5987;53.140;8.904;2023-12-14T01:13:19;5.30;99.90
11855;DHT22;5987;53.140;8.904;2023-12-14T01:16:26;5.20;99.90
11855;DHT22;5987;53.140;8.904;2023-12-14T01:19:30;5.20;99.90
11855;DHT22;5987;53.140;8.904;2023-12-14T01:22:33;5.30;99.90
11855;DHT22;5987;53.140;8.904;2023-12-14T01:25:38;5.30;99.90
11855;DHT22;5987;53.140;8.904;2023-12-14T01:28:43;5.30;99.90
11855;DHT22;5987;53.140;8.904;2023-12-14T01:31:47;5.30;99.90
11855;DHT22;5987;53.140;8.904;2023-12-14T01:34:51;5.30;99.90
11855;DHT22;5987;53.140;8.904;2023-12-14T01:37:55;5.30;99.90
11855;DHT22;5987;53.140;8.904;2023-12-14T01:40:59;5.30;99.90
11855;DHT22;5987;53.140;8.904;2023-12-14T01:44:04;5.30;99.90
11855;DHT22;5987;53.140;8.904;2023-12-14T01:47:08;5.30;99.90
11855;DHT22;5987;53.140;8.904;2023-12-14T01:50:12;5.30;99.90
11855;DHT22;5987;53.140;8.904;2023-12-14T01:53:16;5.20;99.90
11855;DHT22;5987;53.140;8.904;2023-12-14T01:56:20;5.10;99.90
11855;DHT22;5987;53.140;8.904;2023-12-14T01:59:25;5.20;99.90
11855;DHT22;5987;53.140;8.904;2023-12-14T02:02:29;5.10;99.90
11855;DHT22;5987;53.140;8.904;2023-12-14T02:05:34;5.00;99.90
11855;DHT22;5987;53.140;8.904;2023-12-14T02:08:38;5.00;99.90
11855;DHT22;5987;53.140;8.904;2023-12-14T02:11:42;5.00;99.90
11855;DHT22;5987;53.140;8.904;2023-12-14T02:14:48;5.00;99.90
11855;DHT22;5987;53.140;8.904;2023-12-14T02:17:52;5.00;99.90
11855;DHT22;5987;53.140;8.904;2023-12-14T02:20:56;5.00;99.90
11855;DHT22;5987;53.140;8.904;2023-12-14T02:24:01;5.00;99.90
11855;DHT22;5987;53.140;8.904;2023-12-14T02:27:05;5.10;99.90
11855;DHT22;5987;53.140;8.904;2023-12-14T02:30:10;5.10;99.90
11855;DHT22;5987;53.140;8.904;2023-12-14T02:33:14;5.10;99.90
11855;DHT22;5987;53.140;8.904;2023-12-14T02:36:18;5.10;99.90
11855;DHT22;5987;53.140;8.904;2023-12-14T02:39:23;5.10;99.90
11855;DHT22;5987;53.140;8.904;2023-12-14T02:42:27;5.10;99.90
11855;DHT22;5987;53.140;8.904;2023-12-14T02:45:31;5.00;99.90
11855;DHT22;5987;53.140;8.904;2023-12-14T02:48:35;5.10;99.90
11855;DHT22;5987;53.140;8.904;2023-12-14T02:51:39;5.10;99.90
11855;DHT22;5987;53.140;8.904;2023-12-14T02:54:44;5.10;99.90
11855;DHT22;5987;53.140;8.904;2023-12-14T02:57:48;5.10;99.90
11855;DHT22;5987;53.140;8.904;2023-12-14T03:00:52;5.00;99.90
11855;DHT22;5987;53.140;8.904;2023-12-14T03:03:56;5.10;99.90
11855;DHT22;5987;53.140;8.904;2023-12-14T03:07:00;5.20;99.90
11855;DHT22;5987;53.140;8.904;2023-12-14T03:10:07;5.10;99.90
11855;DHT22;5987;53.140;8.904;2023-12-14T03:13:12;5.20;99.90
11855;DHT22;5987;53.140;8.904;2023-12-14T03:16:15;5.10;99.90
11855;DHT22;5987;53.140;8.904;2023-12-14T03:19:21;5.20;99.90
11855;DHT22;5987;53.140;8.904;2023-12-14T03:22:24;5.20;99.90
11855;DHT22;5987;53.140;8.904;2023-12-14T03:25:30;5.30;99.90
11855;DHT22;5987;53.140;8.904;2023-12-14T03:28:33;5.20;99.90
11855;DHT22;5987;53.140;8.904;2023-12-14T03:31:37;5.20;99.90
11855;DHT22;5987;53.140;8.904;2023-12-14T03:34:42;5.30;99.90
11855;DHT22;5987;53.140;8.904;2023-12-14T03:37:45;5.30;99.90
11855;DHT22;5987;53.140;8.904;2023-12-14T03:40:51;5.40;99.90
11855;DHT22;5987;53.140;8.904;2023-12-14T03:43:54;5.30;99.90
11855;DHT22;5987;53.140;8.904;2023-12-14T03:46:58;5.30;99.90
11855;DHT22;5987;53.140;8.904;2023-12-14T03:50:03;5.20;99.90
11855;DHT22;5987;53.140;8.904;2023-12-14T03:53:07;5.20;99.90
11855;DHT22;5987;53.140;8.904;2023-12-14T03:56:13;5.30;99.90
11855;DHT22;5987;53.140;8.904;2023-12-14T03:59:16;5.30;99.90
11855;DHT22;5987;53.140;8.904;2023-12-14T04:02:20;5.30;99.90
11855;DHT22;5987;53.140;8.904;2023-12-14T04:05:24;5.30;99.90
11855;DHT22;5987;53.140;8.904;2023-12-14T04:08:28;5.40;99.90
11855;DHT22;5987;53.140;8.904;2023-12-14T04:11:33;5.30;99.90
11855;DHT22;5987;53.140;8.904;2023-12-14T04:14:37;5.30;99.90
11855;DHT22;5987;53.140;8.904;2023-12-14T04:17:41;5.30;99.90
11855;DHT22;5987;53.140;8.904;2023-12-14T04:20:45;5.30;99.90
11855;DHT22;5987;53.140;8.904;2023-12-14T04:23:49;5.50;99.90
11855;DHT22;5987;53.140;8.904;2023-12-14T04:26:54;5.40;99.90
11855;DHT22;5987;53.140;8.904;2023-12-14T04:29:58;5.40;99.90
11855;DHT22;5987;53.140;8.904;2023-12-14T04:33:01;5.40;99.90
11855;DHT22;5987;53.140;8.904;2023-12-14T04:36:06;5.50;99.90
11855;DHT22;5987;53.140;8.904;2023-12-14T04:39:10;5.50;99.90
11855;DHT22;5987;53.140;8.904;2023-12-14T04:42:16;5.50;99.90
11855;DHT22;5987;53.140;8.904;2023-12-14T04:45:19;5.50;99.90
11855;DHT22;5987;53.140;8.904;2023-12-14T04:48:23;5.50;99.90
11855;DHT22;5987;53.140;8.904;2023-12-14T04:51:27;5.40;99.90
11855;DHT22;5987;53.140;8.904;2023-12-14T04:54:31;5.40;99.90
11855;DHT22;5987;53.140;8.904;2023-12-14T04:57:36;5.50;99.90
11855;DHT22;5987;53.140;8.904;2023-12-14T05:00:40;5.50;99.90
11855;DHT22;5987;53.140;8.904;2023-12-14T05:03:44;5.50;99.90
11855;DHT22;5987;53.140;8.904;2023-12-14T05:06:48;5.40;99.90
11855;DHT22;5987;53.140;8.904;2023-12-14T05:09:52;5.30;99.90
11855;DHT22;5987;53.140;8.904;2023-12-14T05:12:57;5.40;99.90
11855;DHT22;5987;53.140;8.904;2023-12-14T05:16:01;5.40;99.90
11855;DHT22;5987;53.140;8.904;2023-12-14T05:19:05;5.40;99.90
11855;DHT22;5987;53.140;8.904;2023-12-14T05:22:09;5.40;99.90
11855;DHT22;5987;53.140;8.904;2023-12-14T05:25:13;5.30;99.90
11855;DHT22;5987;53.140;8.904;2023-12-14T05:28:19;5.40;99.90
11855;DHT22;5987;53.140;8.904;2023-12-14T05:31:23;5.40;99.90
11855;DHT22;5987;53.140;8.904;2023-12-14T05:34:27;5.40;99.90
11855;DHT22;5987;53.140;8.904;2023-12-14T05:37:31;5.30;99.90
11855;DHT22;5987;53.140;8.904;2023-12-14T05:40:35;5.30;99.90
11855;DHT22;5987;53.140;8.904;2023-12-14T05:43:40;5.30;99.90
11855;DHT22;5987;53.140;8.904;2023-12-14T05:46:44;5.40;99.90
11855;DHT22;5987;53.140;8.904;2023-12-14T05:49:48;5.40;99.90
11855;DHT22;5987;53.140;8.904;2023-12-14T05:52:52;5.40;99.90
11855;DHT22;5987;53.140;8.904;2023-12-14T05:55:56;5.30;99.90
11855;DHT22;5987;53.140;8.904;2023-12-14T05:59:02;5.30;99.90
11855;DHT22;5987;53.140;8.904;2023-12-14T06:02:06;5.40;99.90
11855;DHT22;5987;53.140;8.904;2023-12-14T06:05:11;5.40;99.90
11855;DHT22;5987;53.140;8.904;2023-12-14T06:08:15;5.40;99.90
11855;DHT22;5987;53.140;8.904;2023-12-14T06:11:19;5.50;99.90
11855;DHT22;5987;53.140;8.904;2023-12-14T06:14:25;5.50;99.90
11855;DHT22;5987;53.140;8.904;2023-12-14T06:17:29;5.40;99.90
11855;DHT22;5987;53.140;8.904;2023-12-14T06:20:34;5.40;99.90
11855;DHT22;5987;53.140;8.904;2023-12-14T06:23:37;5.40;99.90
11855;DHT22;5987;53.140;8.904;2023-12-14T06:26:42;5.40;99.90
11855;DHT22;5987;53.140;8.904;2023-12-14T06:29:47;5.40;99.90
11855;DHT22;5987;53.140;8.904;2023-12-14T06:32:51;5.40;99.90
11855;DHT22;5987;53.140;8.904;2023-12-14T06:35:55;5.40;99.90
11855;DHT22;5987;53.140;8.904;2023-12-14T06:38:59;5.40;99.90
11855;DHT22;5987;53.140;8.904;2023-12-14T06:42:05;5.60;99.90
11855;DHT22;5987;53.140;8.904;2023-12-14T06:45:10;5.50;99.90
11855;DHT22;5987;53.140;8.904;2023-12-14T06:48:14;5.50;99.90
11855;DHT22;5987;53.140;8.904;2023-12-14T06:51:18;5.40;99.90
11855;DHT22;5987;53.140;8.904;2023-12-14T06:54:22;5.40;99.90
11855;DHT22;5987;53.140;8.904;2023-12-14T06:57:26;5.50;99.90
11855;DHT22;5987;53.140;8.904;2023-12-14T07:00:32;5.50;99.90
11855;DHT22;5987;53.140;8.904;2023-12-14T07:03:37;5.50;99.90
11855;DHT22;5987;53.140;8.904;2023-12-14T07:06:43;5.60;99.90
11855;DHT22;5987;53.140;8.904;2023-12-14T07:09:53;5.60;99.90
11855;DHT22;5987;53.140;8.904;2023-12-14T07:12:57;5.70;99.90
11855;DHT22;5987;53.140;8.904;2023-12-14T07:16:03;5.60;99.90
11855;DHT22;5987;53.140;8.904;2023-12-14T07:19:10;5.60;99.90
11855;DHT22;5987;53.140;8.904;2023-12-14T07:22:14;5.60;99.90
11855;DHT22;5987;53.140;8.904;2023-12-14T07:25:17;5.70;99.90
11855;DHT22;5987;53.140;8.904;2023-12-14T07:28:21;5.60;99.90
11855;DHT22;5987;53.140;8.904;2023-12-14T07:31:27;5.60;99.90
11855;DHT22;5987;53.140;8.904;2023-12-14T07:34:31;5.60;99.90
11855;DHT22;5987;53.140;8.904;2023-12-14T07:37:35;5.60;99.90
11855;DHT22;5987;53.140;8.904;2023-12-14T07:40:39;5.60;99.90
11855;DHT22;5987;53.140;8.904;2023-12-14T07:43:43;5.50;99.90
11855;DHT22;5987;53.140;8.904;2023-12-14T07:46:48;5.50;99.90
11855;DHT22;5987;53.140;8.904;2023-12-14T07:49:52;5.50;99.90
11855;DHT22;5987;53.140;8.904;2023-12-14T07:52:56;5.40;99.90
11855;DHT22;5987;53.140;8.904;2023-12-14T07:56:00;5.40;99.90
11855;DHT22;5987;53.140;8.904;2023-12-14T07:59:05;5.40;99.90
11855;DHT22;5987;53.140;8.904;2023-12-14T08:02:11;5.50;99.90
11855;DHT22;5987;53.140;8.904;2023-12-14T08:05:15;5.40;99.90
11855;DHT22;5987;53.140;8.904;2023-12-14T08:08:19;5.30;99.90
11855;DHT22;5987;53.140;8.904;2023-12-14T08:11:22;5.30;99.90
11855;DHT22;5987;53.140;8.904;2023-12-14T08:14:26;5.30;99.90
11855;DHT22;5987;53.140;8.904;2023-12-14T08:17:32;5.30;99.90
11855;DHT22;5987;53.140;8.904;2023-12-14T08:20:35;5.40;99.90
11855;DHT22;5987;53.140;8.904;2023-12-14T08:23:39;5.40;99.90
11855;DHT22;5987;53.140;8.904;2023-12-14T08:26:43;5.50;99.90
11855;DHT22;5987;53.140;8.904;2023-12-14T08:29:47;5.50;99.90
11855;DHT22;5987;53.140;8.904;2023-12-14T08:32:52;5.50;99.90
11855;DHT22;5987;53.140;8.904;2023-12-14T08:35:56;5.40;99.90
11855;DHT22;5987;53.140;8.904;2023-12-14T08:39:00;5.40;99.90
11855;DHT22;5987;53.140;8.904;2023-12-14T08:42:05;5.50;99.90
11855;DHT22;5987;53.140;8.904;2023-12-14T08:45:23;5.60;99.90
11855;DHT22;5987;53.140;8.904;2023-12-14T08:48:28;5.70;99.90
11855;DHT22;5987;53.140;8.904;2023-12-14T08:51:32;5.60;99.90
11855;DHT22;5987;53.140;8.904;2023-12-14T08:54:36;5.70;99.90
11855;DHT22;5987;53.140;8.904;2023-12-14T08:57:40;5.70;99.90
11855;DHT22;5987;53.140;8.904;2023-12-14T09:00:44;5.60;99.90
11855;DHT22;5987;53.140;8.904;2023-12-14T09:03:50;5.70;99.90
11855;DHT22;5987;53.140;8.904;2023-12-14T09:06:54;5.70;99.90
11855;DHT22;5987;53.140;8.904;2023-12-14T09:09:59;5.70;99.90
11855;DHT22;5987;53.140;8.904;2023-12-14T09:13:05;5.70;99.90
11855;DHT22;5987;53.140;8.904;2023-12-14T09:16:12;5.80;99.90
11855;DHT22;5987;53.140;8.904;2023-12-14T09:19:17;5.80;99.90
11855;DHT22;5987;53.140;8.904;2023-12-14T09:22:21;6.00;99.90
11855;DHT22;5987;53.140;8.904;2023-12-14T09:25:25;5.90;99.90
11855;DHT22;5987;53.140;8.904;2023-12-14T09:28:29;5.90;99.90
11855;DHT22;5987;53.140;8.904;2023-12-14T09:31:33;5.90;99.90
11855;DHT22;5987;53.140;8.904;2023-12-14T09:34:38;6.00;99.90
11855;DHT22;5987;53.140;8.904;2023-12-14T09:37:43;6.00;99.90
11855;DHT22;5987;53.140;8.904;2023-12-14T09:40:46;6.00;99.90
11855;DHT22;5987;53.140;8.904;2023-12-14T09:43:51;6.00;99.90
11855;DHT22;5987;53.140;8.904;2023-12-14T09:46:55;5.90;99.90
11855;DHT22;5987;53.140;8.904;2023-12-14T09:50:04;5.90;99.90
11855;DHT22;5987;53.140;8.904;2023-12-14T09:53:10;5.90;99.90
11855;DHT22;5987;53.140;8.904;2023-12-14T09:56:14;5.80;99.90
11855;DHT22;5987;53.140;8.904;2023-12-14T09:59:18;5.90;99.90
11855;DHT22;5987;53.140;8.904;2023-12-14T10:02:25;6.00;99.90
11855;DHT22;5987;53.140;8.904;2023-12-14T10:05:31;6.00;99.90
11855;DHT22;5987;53.140;8.904;2023-12-14T10:08:35;5.90;99.90
11855;DHT22;5987;53.140;8.904;2023-12-14T10:11:39;5.90;99.90
11855;DHT22;5987;53.140;8.904;2023-12-14T10:14:43;5.80;99.90
11855;DHT22;5987;53.140;8.904;2023-12-14T10:17:47;5.80;99.90
11855;DHT22;5987;53.140;8.904;2023-12-14T10:20:58;6.00;99.90
11855;DHT22;5987;53.140;8.904;2023-12-14T10:24:01;6.10;99.90
11855;DHT22;5987;53.140;8.904;2023-12-14T10:27:06;6.10;99.90
11855;DHT22;5987;53.140;8.904;2023-12-14T10:30:12;6.20;99.90
11855;DHT22;5987;53.140;8.904;2023-12-14T10:33:17;6.30;99.90
11855;DHT22;5987;53.140;8.904;2023-12-14T10:36:25;6.20;99.90
11855;DHT22;5987;53.140;8.904;2023-12-14T10:39:29;6.30;99.90
11855;DHT22;5987;53.140;8.904;2023-12-14T10:42:36;6.30;99.90
11855;DHT22;5987;53.140;8.904;2023-12-14T10:45:43;6.20;99.90
11855;DHT22;5987;53.140;8.904;2023-12-14T10:48:51;6.30;99.90
11855;DHT22;5987;53.140;8.904;2023-12-14T10:51:58;6.20;99.90
11855;DHT22;5987;53.140;8.904;2023-12-14T10:55:07;6.20;99.90
11855;DHT22;5987;53.140;8.904;2023-12-14T10:58:14;6.20;99.90
11855;DHT22;5987;53.140;8.904;2023-12-14T11:01:20;6.30;99.90
11855;DHT22;5987;53.140;8.904;2023-12-14T11:04:26;6.20;99.90
11855;DHT22;5987;53.140;8.904;2023-12-14T11:07:53;6.20;99.90
11855;DHT22;5987;53.140;8.904;2023-12-14T11:11:04;6.20;99.90
11855;DHT22;5987;53.140;8.904;2023-12-14T11:14:12;6.20;99.90
11855;DHT22;5987;53.140;8.904;2023-12-14T11:17:22;6.10;99.90
11855;DHT22;5987;53.140;8.904;2023-12-14T11:20:27;6.10;99.90
11855;DHT22;5987;53.140;8.904;2023-12-14T11:23:35;6.20;99.90
11855;DHT22;5987;53.140;8.904;2023-12-14T11:26:41;6.20;99.90
11855;DHT22;5987;53.140;8.904;2023-12-14T11:29:45;6.30;99.90
11855;DHT22;5987;53.140;8.904;2023-12-14T11:32:51;6.20;99.90
11855;DHT22;5987;53.140;8.904;2023-12-14T11:35:56;6.10;99.90
11855;DHT22;5987;53.140;8.904;2023-12-14T11:39:02;6.20;99.90
11855;DHT22;5987;53.140;8.904;2023-12-14T11:42:07;6.30;99.90
11855;DHT22;5987;53.140;8.904;2023-12-14T11:45:12;6.50;99.90
11855;DHT22;5987;53.140;8.904;2023-12-14T11:48:16;6.60;99.90
11855;DHT22;5987;53.140;8.904;2023-12-14T11:51:23;6.50;99.90
11855;DHT22;5987;53.140;8.904;2023-12-14T11:54:29;6.50;99.90
11855;DHT22;5987;53.140;8.904;2023-12-14T11:57:33;6.60;99.90
11855;DHT22;5987;53.140;8.904;2023-12-14T12:00:38;6.60;99.90
11855;DHT22;5987;53.140;8.904;2023-12-14T12:03:42;6.60;99.90
11855;DHT22;5987;53.140;8.904;2023-12-14T12:06:47;6.60;99.90
11855;DHT22;5987;53.140;8.904;2023-12-14T12:09:52;6.60;99.90
11855;DHT22;5987;53.140;8.904;2023-12-14T12:13:00;6.50;99.90
11855;DHT22;5987;53.140;8.904;2023-12-14T12:16:05;6.50;99.90
11855;DHT22;5987;53.140;8.904;2023-12-14T12:19:08;6.50;99.90
11855;DHT22;5987;53.140;8.904;2023-12-14T12:22:12;6.50;99.90
11855;DHT22;5987;53.140;8.904;2023-12-14T12:25:18;6.50;99.90
11855;DHT22;5987;53.140;8.904;2023-12-14T12:28:21;6.60;99.90
11855;DHT22;5987;53.140;8.904;2023-12-14T12:31:25;6.70;99.90
11855;DHT22;5987;53.140;8.904;2023-12-14T12:34:29;6.70;99.90
11855;DHT22;5987;53.140;8.904;2023-12-14T12:37:33;6.70;99.90
11855;DHT22;5987;53.140;8.904;2023-12-14T12:40:38;6.60;99.90
11855;DHT22;5987;53.140;8.904;2023-12-14T12:43:42;6.60;99.90
11855;DHT22;5987;53.140;8.904;2023-12-14T12:46:46;6.60;99.90
11855;DHT22;5987;53.140;8.904;2023-12-14T12:50:07;6.60;99.90
11855;DHT22;5987;53.140;8.904;2023-12-14T12:53:11;6.60;99.90
11855;DHT22;5987;53.140;8.904;2023-12-14T12:56:17;6.60;99.90
11855;DHT22;5987;53.140;8.904;2023-12-14T12:59:21;6.50;99.90
11855;DHT22;5987;53.140;8.904;2023-12-14T13:02:25;6.50;99.90
11855;DHT22;5987;53.140;8.904;2023-12-14T13:05:29;6.50;99.90
11855;DHT22;5987;53.140;8.904;2023-12-14T13:08:32;6.50;99.90
11855;DHT22;5987;53.140;8.904;2023-12-14T13:11:38;6.50;99.90
11855;DHT22;5987;53.140;8.904;2023-12-14T13:14:41;6.40;99.90
11855;DHT22;5987;53.140;8.904;2023-12-14T13:17:46;6.50;99.90
11855;DHT22;5987;53.140;8.904;2023-12-14T13:20:49;6.50;99.90
11855;DHT22;5987;53.140;8.904;2023-12-14T13:23:53;6.50;99.90
11855;DHT22;5987;53.140;8.904;2023-12-14T13:27:00;6.40;99.90
11855;DHT22;5987;53.140;8.904;2023-12-14T13:30:05;6.40;99.90
11855;DHT22;5987;53.140;8.904;2023-12-14T13:33:10;6.40;99.90
11855;DHT22;5987;53.140;8.904;2023-12-14T13:36:15;6.40;99.90
11855;DHT22;5987;53.140;8.904;2023-12-14T13:39:20;6.40;99.90
11855;DHT22;5987;53.140;8.904;2023-12-14T13:42:26;6.30;99.90
11855;DHT22;5987;53.140;8.904;2023-12-14T13:45:30;6.40;99.90
11855;DHT22;5987;53.140;8.904;2023-12-14T13:48:34;6.30;99.90
11855;DHT22;5987;53.140;8.904;2023-12-14T13:51:37;6.40;99.90
11855;DHT22;5987;53.140;8.904;2023-12-14T13:54:41;6.40;99.90
11855;DHT22;5987;53.140;8.904;2023-12-14T13:57:46;6.30;99.90
11855;DHT22;5987;53.140;8.904;2023-12-14T14:00:51;6.10;99.90
11855;DHT22;5987;53.140;8.904;2023-12-14T14:03:55;6.20;99.90
11855;DHT22;5987;53.140;8.904;2023-12-14T14:06:59;6.20;99.90
11855;DHT22;5987;53.140;8.904;2023-12-14T14:10:03;6.30;99.90
11855;DHT22;5987;53.140;8.904;2023-12-14T14:13:09;6.20;99.90
11855;DHT22;5987;53.140;8.904;2023-12-14T14:16:13;6.40;99.90
11855;DHT22;5987;53.140;8.904;2023-12-14T14:19:18;6.40;99.90
11855;DHT22;5987;53.140;8.904;2023-12-14T14:22:21;6.40;99.90
11855;DHT22;5987;53.140;8.904;2023-12-14T14:25:26;6.40;99.90
11855;DHT22;5987;53.140;8.904;2023-12-14T14:28:31;6.30;99.90
11855;DHT22;5987;53.140;8.904;2023-12-14T14:31:35;6.30;99.90
11855;DHT22;5987;53.140;8.904;2023-12-14T14:34:39;6.30;99.90
11855;DHT22;5987;53.140;8.904;2023-12-14T14:37:43;6.30;99.90
11855;DHT22;5987;53.140;8.904;2023-12-14T14:40:48;6.30;99.90
11855;DHT22;5987;53.140;8.904;2023-12-14T14:43:53;6.20;99.90
11855;DHT22;5987;53.140;8.904;2023-12-14T14:46:58;6.10;99.90
11855;DHT22;5987;53.140;8.904;2023-12-14T14:50:02;6.00;99.90
11855;DHT22;5987;53.140;8.904;2023-12-14T14:53:09;6.00;99.90
11855;DHT22;5987;53.140;8.904;2023-12-14T14:56:15;6.00;99.90
11855;DHT22;5987;53.140;8.904;2023-12-14T14:59:20;6.00;99.90
11855;DHT22;5987;53.140;8.904;2023-12-14T15:02:24;6.00;99.90
11855;DHT22;5987;53.140;8.904;2023-12-14T15:05:29;6.00;99.90
11855;DHT22;5987;53.140;8.904;2023-12-14T15:08:33;6.00;99.90
11855;DHT22;5987;53.140;8.904;2023-12-14T15:11:37;6.00;99.90
11855;DHT22;5987;53.140;8.904;2023-12-14T15:14:42;6.00;99.90
11855;DHT22;5987;53.140;8.904;2023-12-14T15:17:46;6.10;99.90
11855;DHT22;5987;53.140;8.904;2023-12-14T15:20:50;6.00;99.90
11855;DHT22;5987;53.140;8.904;2023-12-14T15:23:54;6.00;99.90
11855;DHT22;5987;53.140;8.904;2023-12-14T15:26:58;5.80;99.90
11855;DHT22;5987;53.140;8.904;2023-12-14T15:30:05;5.70;99.90
11855;DHT22;5987;53.140;8.904;2023-12-14T15:33:11;5.70;99.90
11855;DHT22;5987;53.140;8.904;2023-12-14T15:36:15;5.70;99.90
11855;DHT22;5987;53.140;8.904;2023-12-14T15:39:19;5.70;99.90
11855;DHT22;5987;53.140;8.904;2023-12-14T15:42:23;5.60;99.90
11855;DHT22;5987;53.140;8.904;2023-12-14T15:45:31;5.60;99.90
11855;DHT22;5987;53.140;8.904;2023-12-14T15:48:35;5.40;99.90
11855;DHT22;5987;53.140;8.904;2023-12-14T15:51:40;5.30;99.90
11855;DHT22;5987;53.140;8.904;2023-12-14T15:54:44;5.30;99.90
11855;DHT22;5987;53.140;8.904;2023-12-14T15:57:47;5.20;99.90
11855;DHT22;5987;53.140;8.904;2023-12-14T16:00:53;5.20;99.90
11855;DHT22;5987;53.140;8.904;2023-12-14T16:03:56;5.20;99.90
11855;DHT22;5987;53.140;8.904;2023-12-14T16:07:00;5.20;99.90
11855;DHT22;5987;53.140;8.904;2023-12-14T16:10:05;5.20;99.90
11855;DHT22;5987;53.140;8.904;2023-12-14T16:13:10;5.20;99.90
11855;DHT22;5987;53.140;8.904;2023-12-14T16:16:15;5.20;99.90
11855;DHT22;5987;53.140;8.904;2023-12-14T16:19:19;5.10;99.90
11855;DHT22;5987;53.140;8.904;2023-12-14T16:22:23;5.10;99.90
11855;DHT22;5987;53.140;8.904;2023-12-14T16:25:26;5.00;99.90
11855;DHT22;5987;53.140;8.904;2023-12-14T16:28:30;5.00;99.90
11855;DHT22;5987;53.140;8.904;2023-12-14T16:31:41;5.10;99.90
11855;DHT22;5987;53.140;8.904;2023-12-14T16:34:45;5.00;99.90
11855;DHT22;5987;53.140;8.904;2023-12-14T16:37:49;5.00;99.90
11855;DHT22;5987;53.140;8.904;2023-12-14T16:40:53;4.90;99.90
11855;DHT22;5987;53.140;8.904;2023-12-14T16:43:57;4.80;99.90
11855;DHT22;5987;53.140;8.904;2023-12-14T16:47:03;4.60;99.90
11855;DHT22;5987;53.140;8.904;2023-12-14T16:50:09;4.60;99.90
11855;DHT22;5987;53.140;8.904;2023-12-14T16:53:14;4.60;99.90
11855;DHT22;5987;53.140;8.904;2023-12-14T16:56:17;4.70;99.90
11855;DHT22;5987;53.140;8.904;2023-12-14T16:59:21;4.80;99.90
11855;DHT22;5987;53.140;8.904;2023-12-14T17:02:27;4.70;99.90
11855;DHT22;5987;53.140;8.904;2023-12-14T17:05:32;4.70;99.90
11855;DHT22;5987;53.140;8.904;2023-12-14T17:08:36;4.70;99.90
11855;DHT22;5987;53.140;8.904;2023-12-14T17:11:40;4.70;99.90
11855;DHT22;5987;53.140;8.904;2023-12-14T17:14:44;4.80;99.90
11855;DHT22;5987;53.140;8.904;2023-12-14T17:17:50;4.70;99.90
11855;DHT22;5987;53.140;8.904;2023-12-14T17:20:53;4.70;99.90
11855;DHT22;5987;53.140;8.904;2023-12-14T17:23:57;4.70;99.90
11855;DHT22;5987;53.140;8.904;2023-12-14T17:27:03;4.70;99.90
11855;DHT22;5987;53.140;8.904;2023-12-14T17:30:08;4.70;99.90
11855;DHT22;5987;53.140;8.904;2023-12-14T17:33:13;4.70;99.90
11855;DHT22;5987;53.140;8.904;2023-12-14T17:36:18;4.70;99.90
11855;DHT22;5987;53.140;8.904;2023-12-14T17:39:21;4.80;99.90
11855;DHT22;5987;53.140;8.904;2023-12-14T17:42:25;4.80;99.90
11855;DHT22;5987;53.140;8.904;2023-12-14T17:45:38;4.80;99.90
11855;DHT22;5987;53.140;8.904;2023-12-14T17:48:43;4.70;99.90
11855;DHT22;5987;53.140;8.904;2023-12-14T17:51:47;4.80;99.90
11855;DHT22;5987;53.140;8.904;2023-12-14T17:54:51;4.90;99.90
11855;DHT22;5987;53.140;8.904;2023-12-14T17:57:55;4.90;99.90
11855;DHT22;5987;53.140;8.904;2023-12-14T18:00:59;4.80;99.90
11855;DHT22;5987;53.140;8.904;2023-12-14T18:04:08;4.90;99.90
11855;DHT22;5987;53.140;8.904;2023-12-14T18:07:13;4.90;99.90
11855;DHT22;5987;53.140;8.904;2023-12-14T18:10:18;4.90;99.90
11855;DHT22;5987;53.140;8.904;2023-12-14T18:13:23;5.00;99.90
11855;DHT22;5987;53.140;8.904;2023-12-14T18:16:27;5.00;99.90
11855;DHT22;5987;53.140;8.904;2023-12-14T18:19:33;5.00;99.90
11855;DHT22;5987;53.140;8.904;2023-12-14T18:22:37;5.20;99.90
11855;DHT22;5987;53.140;8.904;2023-12-14T18:25:40;5.20;99.90
11855;DHT22;5987;53.140;8.904;2023-12-14T18:28:48;5.10;99.90
11855;DHT22;5987;53.140;8.904;2023-12-14T18:31:52;5.10;99.90
11855;DHT22;5987;53.140;8.904;2023-12-14T18:34:57;5.20;99.90
11855;DHT22;5987;53.140;8.904;2023-12-14T18:38:01;5.20;99.90
11855;DHT22;5987;53.140;8.904;2023-12-14T18:41:05;5.10;99.90
11855;DHT22;5987;53.140;8.904;2023-12-14T18:44:09;5.30;99.90
11855;DHT22;5987;53.140;8.904;2023-12-14T18:47:13;5.40;99.90
11855;DHT22;5987;53.140;8.904;2023-12-14T18:50:19;5.20;99.90
11855;DHT22;5987;53.140;8.904;2023-12-14T18:53:23;5.30;99.90
11855;DHT22;5987;53.140;8.904;2023-12-14T18:56:26;5.30;99.90
11855;DHT22;5987;53.140;8.904;2023-12-14T18:59:33;5.40;99.90
11855;DHT22;5987;53.140;8.904;2023-12-14T19:02:38;5.50;99.90
11855;DHT22;5987;53.140;8.904;2023-12-14T19:05:44;5.30;99.90
11855;DHT22;5987;53.140;8.904;2023-12-14T19:08:48;5.20;99.90
11855;DHT22;5987;53.140;8.904;2023-12-14T19:11:52;5.30;99.90
11855;DHT22;5987;53.140;8.904;2023-12-14T19:14:56;5.40;99.90
11855;DHT22;5987;53.140;8.904;2023-12-14T19:18:00;5.40;99.90
11855;DHT22;5987;53.140;8.904;2023-12-14T19:21:06;5.50;99.90
11855;DHT22;5987;53.140;8.904;2023-12-14T19:24:10;5.30;99.90
11855;DHT22;5987;53.140;8.904;2023-12-14T19:27:13;5.30;99.90
11855;DHT22;5987;53.140;8.904;2023-12-14T19:30:18;5.20;99.90
11855;DHT22;5987;53.140;8.904;2023-12-14T19:33:23;5.20;99.90
11855;DHT22;5987;53.140;8.904;2023-12-14T19:36:28;5.30;99.90
11855;DHT22;5987;53.140;8.904;2023-12-14T19:39:34;5.40;99.90
11855;DHT22;5987;53.140;8.904;2023-12-14T19:42:38;5.30;99.90
11855;DHT22;5987;53.140;8.904;2023-12-14T19:45:41;5.30;99.90
11855;DHT22;5987;53.140;8.904;2023-12-14T19:48:45;5.40;99.90
11855;DHT22;5987;53.140;8.904;2023-12-14T19:51:51;5.40;99.90
11855;DHT22;5987;53.140;8.904;2023-12-14T19:54:55;5.50;99.90
11855;DHT22;5987;53.140;8.904;2023-12-14T19:58:00;5.40;99.90
11855;DHT22;5987;53.140;8.904;2023-12-14T20:01:04;5.40;99.90
11855;DHT22;5987;53.140;8.904;2023-12-14T20:04:08;5.40;99.90
11855;DHT22;5987;53.140;8.904;2023-12-14T20:07:16;5.40;99.90